Check out our new BloomSky Weather System.

Active alerts


No alerts


Thunder radar  blitzortung!


Rain radar more information rain snow radar


Visit our other weather sites:

Template documentation
and downloads

And another site



Weather Underground History page Text

Daily Summary for April 9, 2017 Units:  Metric    English   Both
« Previous Day
Next Day »
Daily Weekly Monthly Yearly Custom
  High: Low: Average:
Temperature: 28.4 °C 15.6 °C 22.7 °C
Dew Point: 19.3 °C 14.3 °C 17.2 °C
Humidity: 94 % 50 % 73 %
Wind Speed: 24.1 km/h 0 km/h 8.9 km/h
Wind Gust: 35.4 km/h - -
Wind:- - SSE
Pressure: 1015.5 hPa 1012.1 hPa -
Precipitation: 0 mm    
Historical Graphs
 
 
Tabular Data for April 9, 2017
Time Temperature Dew Point Pressure Wind Wind Speed Wind Gust Humidity Rainfall Rate (Hourly)
00:02 19.7 °C 15.1 °C 1015.1 hPa SSW 9.7 km/h 12.9 km/h 75 % 0 mm
00:07 19.7 °C 15.1 °C 1015.1 hPa SSW 4.8 km/h 12.9 km/h 75 % 0 mm
00:12 19.6 °C 15.3 °C 1015.1 hPa ESE 12.9 km/h 12.9 km/h 76 % 0 mm
00:17 19.6 °C 15.3 °C 1015.1 hPa SSE 6.4 km/h 12.9 km/h 76 % 0 mm
00:22 19.6 °C 15.3 °C 1015.1 hPa SSE 6.4 km/h 14.5 km/h 76 % 0 mm
00:27 19.6 °C 15.3 °C 1015.1 hPa SSE 4.8 km/h 14.5 km/h 76 % 0 mm
00:32 19.5 °C 15.4 °C 1015.1 hPa South 6.4 km/h 14.5 km/h 77 % 0 mm
00:37 19.6 °C 15.5 °C 1014.8 hPa SE 3.2 km/h 14.5 km/h 77 % 0 mm
00:42 19.5 °C 15.4 °C 1014.8 hPa South 4.8 km/h 12.9 km/h 77 % 0 mm
00:47 19.4 °C 15.3 °C 1014.8 hPa SE 4.8 km/h 12.9 km/h 77 % 0 mm
00:52 19.4 °C 15.5 °C 1014.8 hPa SSW 1.6 km/h 11.3 km/h 78 % 0 mm
00:57 19.3 °C 15.4 °C 1014.8 hPa SE 6.4 km/h 11.3 km/h 78 % 0 mm
01:02 19.4 °C 15.5 °C 1014.8 hPa SSE 3.2 km/h 12.9 km/h 78 % 0 mm
01:07 19.4 °C 15.5 °C 1014.4 hPa SE 6.4 km/h 12.9 km/h 78 % 0 mm
01:12 19.4 °C 15.5 °C 1014.4 hPa SSE 6.4 km/h 12.9 km/h 78 % 0 mm
01:17 19.3 °C 15.4 °C 1014.4 hPa SSE 6.4 km/h 12.9 km/h 78 % 0 mm
01:22 19.3 °C 15.6 °C 1014.4 hPa ESE 3.2 km/h 12.9 km/h 79 % 0 mm
01:27 19.3 °C 15.6 °C 1014.4 hPa South 3.2 km/h 12.9 km/h 79 % 0 mm
01:32 19.2 °C 15.5 °C 1014.4 hPa SE 3.2 km/h 9.7 km/h 79 % 0 mm
01:42 19.2 °C 15.7 °C 1014.4 hPa SE 6.4 km/h 9.7 km/h 80 % 0 mm
01:47 19.1 °C 15.6 °C 1014.4 hPa South 6.4 km/h 9.7 km/h 80 % 0 mm
01:52 19.1 °C 15.6 °C 1014.4 hPa SSE 3.2 km/h 11.3 km/h 80 % 0 mm
01:57 19 °C 15.5 °C 1014.4 hPa SSE 1.6 km/h 11.3 km/h 80 % 0 mm
02:02 18.9 °C 15.6 °C 1014.4 hPa SE 3.2 km/h 11.3 km/h 81 % 0 mm
02:12 18.9 °C 15.6 °C 1014.1 hPa SE 3.2 km/h 9.7 km/h 81 % 0 mm
02:17 18.9 °C 15.6 °C 1014.1 hPa SSE 3.2 km/h 9.7 km/h 81 % 0 mm
02:22 18.9 °C 15.6 °C 1014.1 hPa SSE 6.4 km/h 9.7 km/h 81 % 0 mm
02:24 18.9 °C 15.6 °C 1013.8 hPa SE 6.4 km/h 9.7 km/h 81 % 0 mm
02:29 18.9 °C 15.6 °C 1013.8 hPa South 3.2 km/h 9.7 km/h 81 % 0 mm
02:34 18.8 °C 15.5 °C 1013.8 hPa SSE 1.6 km/h 9.7 km/h 81 % 0 mm
02:39 18.8 °C 15.7 °C 1013.8 hPa South 1.6 km/h 9.7 km/h 82 % 0 mm
02:44 18.7 °C 15.6 °C 1013.8 hPa SSE 3.2 km/h 8 km/h 82 % 0 mm
02:54 18.6 °C 15.5 °C 1013.8 hPa South 3.2 km/h 6.4 km/h 82 % 0 mm
02:59 18.6 °C 15.5 °C 1013.8 hPa South 3.2 km/h 8 km/h 82 % 0 mm
03:04 18.6 °C 15.5 °C 1013.8 hPa South 3.2 km/h 8 km/h 82 % 0 mm
03:09 18.6 °C 15.7 °C 1013.8 hPa SSE 3.2 km/h 8 km/h 83 % 0 mm
03:14 18.6 °C 15.7 °C 1013.8 hPa SSE 4.8 km/h 8 km/h 83 % 0 mm
03:19 18.6 °C 15.7 °C 1013.4 hPa SSE 3.2 km/h 9.7 km/h 83 % 0 mm
03:24 18.5 °C 15.6 °C 1013.4 hPa SSE 1.6 km/h 9.7 km/h 83 % 0 mm
03:29 18.5 °C 15.6 °C 1013.4 hPa SE 4.8 km/h 9.7 km/h 83 % 0 mm
03:39 18.4 °C 15.5 °C 1013.4 hPa SW 3.2 km/h 8 km/h 83 % 0 mm
03:44 18.4 °C 15.5 °C 1013.4 hPa SSW 1.6 km/h 8 km/h 83 % 0 mm
03:59 18.3 °C 15.5 °C 1013.4 hPa South 1.6 km/h 6.4 km/h 84 % 0 mm
04:04 18.2 °C 15.5 °C 1013.4 hPa SSE 3.2 km/h 6.4 km/h 84 % 0 mm
04:09 18.2 °C 15.5 °C 1013.4 hPa South 1.6 km/h 4.8 km/h 84 % 0 mm
04:14 18.1 °C 15.5 °C 1013.4 hPa South 1.6 km/h 4.8 km/h 85 % 0 mm
04:19 17.9 °C 15.3 °C 1013.4 hPa SSE 1.6 km/h 4.8 km/h 85 % 0 mm
04:24 17.9 °C 15.3 °C 1013.4 hPa SSE 1.6 km/h 3.2 km/h 85 % 0 mm
04:29 17.8 °C 15.2 °C 1013.4 hPa Calm   3.2 km/h 85 % 0 mm
04:34 17.7 °C 15.3 °C 1013.4 hPa Calm   3.2 km/h 86 % 0 mm
04:39 17.7 °C 15.3 °C 1013.4 hPa Calm   3.2 km/h 86 % 0 mm
04:44 17.6 °C 15.2 °C 1013.4 hPa Calm   3.2 km/h 86 % 0 mm
04:48 17.6 °C 15.4 °C 1013.4 hPa Calm   1.6 km/h 87 % 0 mm
04:53 17.4 °C 15.2 °C 1013.4 hPa Calm   1.6 km/h 87 % 0 mm
04:58 17.3 °C 15.1 °C 1013.4 hPa SE 1.6 km/h 1.6 km/h 87 % 0 mm
05:03 17.3 °C 15.3 °C 1013.4 hPa Calm   1.6 km/h 88 % 0 mm
05:08 17.3 °C 15.3 °C 1013.4 hPa Calm   1.6 km/h 88 % 0 mm
05:13 17.2 °C 15.2 °C 1013.4 hPa Calm   1.6 km/h 88 % 0 mm
05:18 17.1 °C 15.1 °C 1013.4 hPa Calm   1.6 km/h 88 % 0 mm
05:23 17 °C 15 °C 1013.4 hPa Calm   1.6 km/h 88 % 0 mm
05:28 16.9 °C 15.1 °C 1013.4 hPa Calm   1.6 km/h 89 % 0 mm
05:33 16.8 °C 15 °C 1013.4 hPa Calm   1.6 km/h 89 % 0 mm
05:38 16.6 °C 14.8 °C 1013.4 hPa Calm   1.6 km/h 89 % 0 mm
05:43 16.5 °C 14.7 °C 1013.4 hPa Calm   1.6 km/h 89 % 0 mm
05:48 16.4 °C 14.6 °C 1013.4 hPa Calm     89 % 0 mm
05:53 16.3 °C 14.7 °C 1013.4 hPa Calm     90 % 0 mm
05:56 16.2 °C 14.6 °C 1013.4 hPa Calm     90 % 0 mm
06:01 16.2 °C 14.7 °C 1013.4 hPa Calm   1.6 km/h 91 % 0 mm
06:06 16.3 °C 14.8 °C 1013.4 hPa Calm   1.6 km/h 91 % 0 mm
06:11 16.2 °C 14.7 °C 1013.4 hPa Calm   1.6 km/h 91 % 0 mm
06:16 16.1 °C 14.6 °C 1013.4 hPa Calm   1.6 km/h 91 % 0 mm
06:22 15.9 °C 14.4 °C 1013.4 hPa Calm   1.6 km/h 91 % 0 mm
06:27 15.8 °C 14.5 °C 1013.4 hPa Calm   1.6 km/h 92 % 0 mm
06:32 15.8 °C 14.5 °C 1013.4 hPa Calm     92 % 0 mm
06:37 15.7 °C 14.4 °C 1013.4 hPa Calm     92 % 0 mm
06:42 15.6 °C 14.3 °C 1013.8 hPa Calm     92 % 0 mm
06:47 15.7 °C 14.6 °C 1013.8 hPa Calm   1.6 km/h 93 % 0 mm
06:52 15.9 °C 14.8 °C 1013.4 hPa Calm   1.6 km/h 93 % 0 mm
06:57 16 °C 15 °C 1013.4 hPa Calm   1.6 km/h 94 % 0 mm
07:02 16.1 °C 15.1 °C 1013.4 hPa Calm   1.6 km/h 94 % 0 mm
07:07 16.2 °C 15.2 °C 1013.8 hPa Calm   1.6 km/h 94 % 0 mm
07:12 16.2 °C 15.1 °C 1013.8 hPa Calm   1.6 km/h 93 % 0 mm
07:17 16.2 °C 15.1 °C 1013.8 hPa Calm   1.6 km/h 93 % 0 mm
07:22 16.2 °C 15.2 °C 1013.8 hPa Calm   1.6 km/h 94 % 0 mm
07:27 16.3 °C 15.3 °C 1013.8 hPa Calm   3.2 km/h 94 % 0 mm
07:32 16.6 °C 15.6 °C 1013.8 hPa SE 1.6 km/h 3.2 km/h 94 % 0 mm
07:37 16.8 °C 15.8 °C 1013.8 hPa Calm   3.2 km/h 94 % 0 mm
07:42 17.1 °C 16.1 °C 1013.8 hPa SE 1.6 km/h 6.4 km/h 94 % 0 mm
07:47 17.4 °C 16.3 °C 1013.8 hPa SE 3.2 km/h 6.4 km/h 93 % 0 mm
07:52 17.8 °C 16.7 °C 1014.1 hPa ESE 4.8 km/h 6.4 km/h 93 % 0 mm
07:57 18.2 °C 16.7 °C 1014.1 hPa SSE 4.8 km/h 8 km/h 91 % 0 mm
08:02 18.7 °C 17 °C 1014.1 hPa SE 3.2 km/h 8 km/h 90 % 0 mm
08:07 18.9 °C 17 °C 1014.1 hPa South 3.2 km/h 8 km/h 89 % 0 mm
08:17 19.7 °C 17.5 °C 1014.1 hPa SE 8 km/h 8 km/h 87 % 0 mm
08:22 20.1 °C 17.5 °C 1014.4 hPa SSE 3.2 km/h 9.7 km/h 85 % 0 mm
08:27 20.4 °C 17.6 °C 1014.4 hPa ESE 4.8 km/h 9.7 km/h 84 % 0 mm
08:32 20.7 °C 17.7 °C 1014.4 hPa SSE 4.8 km/h 9.7 km/h 83 % 0 mm
08:37 21 °C 17.8 °C 1014.4 hPa South 8 km/h 9.7 km/h 82 % 0 mm
08:42 21.3 °C 17.9 °C 1014.4 hPa SSE 9.7 km/h 9.7 km/h 81 % 0 mm
08:47 21.5 °C 17.9 °C 1014.4 hPa SSE 4.8 km/h 12.9 km/h 80 % 0 mm
08:52 21.7 °C 17.9 °C 1014.8 hPa SE 3.2 km/h 12.9 km/h 79 % 0 mm
08:57 21.9 °C 18.1 °C 1014.4 hPa SE 6.4 km/h 16.1 km/h 79 % 0 mm
09:02 22.1 °C 18.1 °C 1014.4 hPa SE 6.4 km/h 16.1 km/h 78 % 0 mm
09:07 22.3 °C 18.3 °C 1014.8 hPa SSE 8 km/h 16.1 km/h 78 % 0 mm
09:12 22.5 °C 18.1 °C 1014.8 hPa SE 6.4 km/h 16.1 km/h 76 % 0 mm
09:17 22.7 °C 18.2 °C 1014.8 hPa SSE 11.3 km/h 16.1 km/h 76 % 0 mm
09:22 22.9 °C 18.2 °C 1014.8 hPa SE 9.7 km/h 24.1 km/h 75 % 0 mm
09:27 23.2 °C 18.3 °C 1014.8 hPa South 16.1 km/h 24.1 km/h 74 % 0 mm
09:32 23.4 °C 18.5 °C 1014.8 hPa South 9.7 km/h 24.1 km/h 74 % 0 mm
09:33 23.4 °C 18.3 °C 1014.8 hPa SSE 11.3 km/h 24.1 km/h 73 % 0 mm
09:38 23.6 °C 18.3 °C 1014.8 hPa SSW 12.9 km/h 22.5 km/h 72 % 0 mm
09:43 23.7 °C 18.4 °C 1014.8 hPa ESE 6.4 km/h 24.1 km/h 72 % 0 mm
09:48 23.8 °C 18.4 °C 1014.8 hPa SW 14.5 km/h 24.1 km/h 72 % 0 mm
09:53 23.9 °C 18.5 °C 1014.8 hPa SSW 9.7 km/h 24.1 km/h 72 % 0 mm
09:58 23.9 °C 18.1 °C 1014.8 hPa SSE 8 km/h 20.9 km/h 70 % 0 mm
10:03 24 °C 18.4 °C 1014.8 hPa SSW 8 km/h 24.1 km/h 71 % 0 mm
10:08 23.9 °C 18.1 °C 1014.8 hPa SSW 9.7 km/h 24.1 km/h 70 % 0 mm
10:13 24.2 °C 18.2 °C 1014.8 hPa ESE 12.9 km/h 27.4 km/h 69 % 0 mm
10:18 24.3 °C 18 °C 1014.8 hPa SE 14.5 km/h 27.4 km/h 68 % 0 mm
10:23 24.4 °C 18.1 °C 1014.8 hPa SE 19.3 km/h 27.4 km/h 68 % 0 mm
10:28 24.7 °C 18.2 °C 1014.8 hPa SE 12.9 km/h 25.7 km/h 67 % 0 mm
10:33 24.7 °C 18.4 °C 1015.1 hPa SW 12.9 km/h 32.2 km/h 68 % 0 mm
10:38 24.8 °C 17.8 °C 1015.1 hPa South 17.7 km/h 32.2 km/h 65 % 0 mm
10:43 24.8 °C 18 °C 1015.1 hPa South 9.7 km/h 32.2 km/h 66 % 0 mm
10:48 25 °C 18.2 °C 1014.8 hPa SSW 14.5 km/h 24.1 km/h 66 % 0 mm
10:49 25.1 °C 18.1 °C 1015.1 hPa SSW 20.9 km/h 24.1 km/h 65 % 0 mm
10:54 24.9 °C 17.4 °C 1015.1 hPa SSE 12.9 km/h 24.1 km/h 63 % 0 mm
10:59 25 °C 17.5 °C 1015.5 hPa South 11.3 km/h 27.4 km/h 63 % 0 mm
11:04 24.8 °C 17.5 °C 1015.5 hPa South 12.9 km/h 27.4 km/h 64 % 0 mm
11:09 24.8 °C 17.8 °C 1015.5 hPa SE 8 km/h 32.2 km/h 65 % 0 mm
11:14 24.8 °C 18 °C 1015.5 hPa West 4.8 km/h 32.2 km/h 66 % 0 mm
11:20 25.2 °C 18.2 °C 1015.5 hPa SW 8 km/h 32.2 km/h 65 % 0 mm
11:25 25.8 °C 18 °C 1015.5 hPa SSW 6.4 km/h 20.9 km/h 62 % 0 mm
11:30 25.5 °C 17.4 °C 1015.5 hPa SSW 14.5 km/h 22.5 km/h 61 % 0 mm
11:35 25.3 °C 18 °C 1015.5 hPa SE 11.3 km/h 22.5 km/h 64 % 0 mm
11:40 25.6 °C 17.8 °C 1015.5 hPa SSE 16.1 km/h 22.5 km/h 62 % 0 mm
11:43 25.6 °C 17.3 °C 1015.5 hPa SE 9.7 km/h 27.4 km/h 60 % 0 mm
11:48 25.6 °C 17.5 °C 1015.5 hPa ESE 12.9 km/h 27.4 km/h 61 % 0 mm
11:58 26.2 °C 18.1 °C 1015.1 hPa SSW 11.3 km/h 24.1 km/h 61 % 0 mm
12:03 26.5 °C 17.6 °C 1015.1 hPa SE 14.5 km/h 24.1 km/h 58 % 0 mm
12:08 26.3 °C 17.9 °C 1015.1 hPa South 12.9 km/h 24.1 km/h 60 % 0 mm
12:13 26.4 °C 17.7 °C 1015.1 hPa South 14.5 km/h 25.7 km/h 59 % 0 mm
12:18 26.7 °C 17.5 °C 1015.1 hPa SSE 11.3 km/h 25.7 km/h 57 % 0 mm
12:23 26.9 °C 17.7 °C 1015.1 hPa ESE 14.5 km/h 25.7 km/h 57 % 0 mm
12:28 27.1 °C 17.6 °C 1014.8 hPa SE 11.3 km/h 24.1 km/h 56 % 0 mm
12:33 27.2 °C 17.4 °C 1014.8 hPa South 11.3 km/h 24.1 km/h 55 % 0 mm
12:44 27.1 °C 17 °C 1014.8 hPa SE 12.9 km/h 24.1 km/h 54 % 0 mm
12:49 27.1 °C 17.3 °C 1014.8 hPa SE 9.7 km/h 22.5 km/h 55 % 0 mm
12:54 27.4 °C 17.8 °C 1014.8 hPa SSW 9.7 km/h 22.5 km/h 56 % 0 mm
12:59 27.7 °C 18.1 °C 1014.4 hPa SSE 4.8 km/h 25.7 km/h 56 % 0 mm
13:04 27.9 °C 17.1 °C 1014.4 hPa SSE 14.5 km/h 25.7 km/h 52 % 0 mm
13:09 27.8 °C 17 °C 1014.4 hPa South 24.1 km/h 27.4 km/h 52 % 0 mm
13:14 27.7 °C 16.9 °C 1014.1 hPa SSW 20.9 km/h 27.4 km/h 52 % 0 mm
13:19 27.7 °C 16.9 °C 1014.1 hPa South 14.5 km/h 27.4 km/h 52 % 0 mm
13:24 27.8 °C 16.7 °C 1014.1 hPa SSW 17.7 km/h 27.4 km/h 51 % 0 mm
13:29 27.9 °C 17.4 °C 1013.8 hPa SE 14.5 km/h 27.4 km/h 53 % 0 mm
13:34 27.8 °C 17.6 °C 1013.8 hPa SSE 17.7 km/h 27.4 km/h 54 % 0 mm
13:39 28.1 °C 16.7 °C 1013.8 hPa South 16.1 km/h 27.4 km/h 50 % 0 mm
13:44 28.1 °C 17 °C 1013.8 hPa East 11.3 km/h 25.7 km/h 51 % 0 mm
13:49 28.2 °C 17.4 °C 1013.8 hPa SE 12.9 km/h 25.7 km/h 52 % 0 mm
13:54 28.1 °C 17 °C 1013.4 hPa ESE 11.3 km/h 25.7 km/h 51 % 0 mm
13:59 28.3 °C 17.8 °C 1013.4 hPa SSW 9.7 km/h 25.7 km/h 53 % 0 mm
14:04 28.4 °C 17.6 °C 1013.4 hPa SE 16.1 km/h 25.7 km/h 52 % 0 mm
14:09 28.4 °C 17 °C 1013.4 hPa SSE 11.3 km/h 29 km/h 50 % 0 mm
14:14 28.4 °C 17 °C 1013.4 hPa SE 14.5 km/h 29 km/h 50 % 0 mm
14:19 28.2 °C 17.4 °C 1013.1 hPa East 8 km/h 29 km/h 52 % 0 mm
14:24 28.3 °C 17.5 °C 1013.4 hPa SE 14.5 km/h 25.7 km/h 52 % 0 mm
14:29 28.3 °C 17.8 °C 1013.1 hPa SSE 17.7 km/h 25.7 km/h 53 % 0 mm
14:34 28.4 °C 17.3 °C 1013.1 hPa South 14.5 km/h 25.7 km/h 51 % 0 mm
14:39 28.3 °C 17.8 °C 1013.1 hPa SE 19.3 km/h 27.4 km/h 53 % 0 mm
14:44 28.1 °C 17.6 °C 1013.1 hPa SSE 19.3 km/h 29 km/h 53 % 0 mm
14:50 28.2 °C 17.7 °C 1013.1 hPa SE 9.7 km/h 29 km/h 53 % 0 mm
14:55 28.2 °C 18 °C 1013.1 hPa SSE 22.5 km/h 29 km/h 54 % 0 mm
15:00 28.2 °C 18 °C 1013.1 hPa ESE 14.5 km/h 32.2 km/h 54 % 0 mm
15:04 28.2 °C 18 °C 1012.8 hPa South 20.9 km/h 32.2 km/h 54 % 0 mm
15:10 28.2 °C 18 °C 1012.8 hPa SE 17.7 km/h 32.2 km/h 54 % 0 mm
15:14 28.1 °C 18.2 °C 1012.8 hPa South 8 km/h 30.6 km/h 55 % 0 mm
15:20 28.2 °C 18.3 °C 1012.8 hPa South 16.1 km/h 27.4 km/h 55 % 0 mm
15:25 28.2 °C 18 °C 1012.8 hPa SE 12.9 km/h 24.1 km/h 54 % 0 mm
15:30 28 °C 18.1 °C 1012.4 hPa SE 16.1 km/h 24.1 km/h 55 % 0 mm
15:40 28 °C 18.7 °C 1012.8 hPa SSE 9.7 km/h 27.4 km/h 57 % 0 mm
15:45 28.2 °C 18.3 °C 1012.4 hPa SE 14.5 km/h 27.4 km/h 55 % 0 mm
15:50 27.8 °C 18.2 °C 1012.4 hPa SSE 14.5 km/h 30.6 km/h 56 % 0 mm
15:55 27.6 °C 18.6 °C 1012.4 hPa SSE 22.5 km/h 30.6 km/h 58 % 0 mm
16:00 27.6 °C 18.6 °C 1012.4 hPa SSE 9.7 km/h 30.6 km/h 58 % 0 mm
16:05 27.8 °C 18.5 °C 1012.4 hPa SE 14.5 km/h 35.4 km/h 57 % 0 mm
16:10 27.7 °C 18.4 °C 1012.4 hPa SSE 16.1 km/h 35.4 km/h 57 % 0 mm
16:15 27.6 °C 18.3 °C 1012.1 hPa ESE 17.7 km/h 35.4 km/h 57 % 0 mm
16:20 27.7 °C 18.4 °C 1012.1 hPa ESE 17.7 km/h 29 km/h 57 % 0 mm
16:25 27.7 °C 18.4 °C 1012.1 hPa ESE 19.3 km/h 29 km/h 57 % 0 mm
16:30 27.4 °C 18.4 °C 1012.1 hPa South 12.9 km/h 30.6 km/h 58 % 0 mm
16:35 27.3 °C 18 °C 1012.4 hPa SSE 12.9 km/h 30.6 km/h 57 % 0 mm
16:40 27 °C 18 °C 1012.4 hPa ESE 14.5 km/h 30.6 km/h 58 % 0 mm
16:45 26.8 °C 17.8 °C 1012.4 hPa South 14.5 km/h 25.7 km/h 58 % 0 mm
16:50 26.6 °C 17.9 °C 1012.1 hPa East 20.9 km/h 27.4 km/h 59 % 0 mm
16:55 26.5 °C 18.1 °C 1012.1 hPa ESE 16.1 km/h 27.4 km/h 60 % 0 mm
17:00 26.6 °C 18.2 °C 1012.1 hPa SSE 16.1 km/h 27.4 km/h 60 % 0 mm
17:05 26.9 °C 18.5 °C 1012.1 hPa South 12.9 km/h 27.4 km/h 60 % 0 mm
17:10 26.8 °C 18.1 °C 1012.1 hPa SSE 14.5 km/h 25.7 km/h 59 % 0 mm
17:15 26.4 °C 18 °C 1012.1 hPa SE 12.9 km/h 29 km/h 60 % 0 mm
17:20 26.2 °C 18.1 °C 1012.4 hPa SE 8 km/h 29 km/h 61 % 0 mm
17:25 26 °C 17.9 °C 1012.4 hPa SSW 9.7 km/h 29 km/h 61 % 0 mm
17:30 26 °C 18.2 °C 1012.1 hPa ESE 20.9 km/h 24.1 km/h 62 % 0 mm
17:35 25.9 °C 18.1 °C 1012.1 hPa SE 12.9 km/h 29 km/h 62 % 0 mm
17:40 25.9 °C 18.1 °C 1012.1 hPa SE 16.1 km/h 29 km/h 62 % 0 mm
17:45 25.9 °C 18.1 °C 1012.1 hPa SE 11.3 km/h 29 km/h 62 % 0 mm
17:50 25.9 °C 18.1 °C 1012.1 hPa SSE 9.7 km/h 24.1 km/h 62 % 0 mm
17:55 25.9 °C 18.1 °C 1012.1 hPa SSE 17.7 km/h 24.1 km/h 62 % 0 mm
18:00 25.7 °C 17.9 °C 1012.1 hPa SE 11.3 km/h 24.1 km/h 62 % 0 mm
18:05 25.6 °C 18 °C 1012.1 hPa SSE 8 km/h 24.1 km/h 63 % 0 mm
18:10 25.4 °C 18.1 °C 1012.1 hPa SE 11.3 km/h 24.1 km/h 64 % 0 mm
18:15 25.4 °C 18.1 °C 1012.1 hPa SSE 16.1 km/h 24.1 km/h 64 % 0 mm
18:20 25.3 °C 18 °C 1012.1 hPa East 16.1 km/h 24.1 km/h 64 % 0 mm
18:25 25.2 °C 18.2 °C 1012.4 hPa SE 12.9 km/h 24.1 km/h 65 % 0 mm
18:30 25.2 °C 18.2 °C 1012.4 hPa SSE 11.3 km/h 22.5 km/h 65 % 0 mm
18:35 25 °C 18 °C 1012.4 hPa SE 9.7 km/h 24.1 km/h 65 % 0 mm
18:40 24.9 °C 18.1 °C 1012.4 hPa SSE 20.9 km/h 24.1 km/h 66 % 0 mm
18:45 24.8 °C 18 °C 1012.4 hPa SE 8 km/h 24.1 km/h 66 % 0 mm
18:50 24.8 °C 18.3 °C 1012.4 hPa ESE 17.7 km/h 24.1 km/h 67 % 0 mm
18:55 24.8 °C 18.3 °C 1012.8 hPa SE 9.7 km/h 24.1 km/h 67 % 0 mm
19:00 24.7 °C 18.2 °C 1012.8 hPa ESE 9.7 km/h 33.8 km/h 67 % 0 mm
19:05 24.6 °C 18.1 °C 1012.8 hPa ESE 17.7 km/h 33.8 km/h 67 % 0 mm
19:10 24.5 °C 18 °C 1012.8 hPa ESE 12.9 km/h 33.8 km/h 67 % 0 mm
19:15 24.4 °C 18.1 °C 1012.8 hPa South 9.7 km/h 22.5 km/h 68 % 0 mm
19:20 24.4 °C 18.1 °C 1012.8 hPa ESE 14.5 km/h 22.5 km/h 68 % 0 mm
19:25 24.3 °C 18.2 °C 1013.1 hPa SSW 4.8 km/h 22.5 km/h 69 % 0 mm
19:30 24.2 °C 18.2 °C 1013.1 hPa ENE 8 km/h 20.9 km/h 69 % 0 mm
19:35 24.2 °C 18.4 °C 1013.1 hPa East 4.8 km/h 19.3 km/h 70 % 0 mm
19:40 24.1 °C 18.3 °C 1013.1 hPa SSE 12.9 km/h 19.3 km/h 70 % 0 mm
19:45 24.1 °C 18.5 °C 1013.1 hPa SSE 11.3 km/h 17.7 km/h 71 % 0 mm
19:50 24.1 °C 18.5 °C 1013.1 hPa SSW 12.9 km/h 19.3 km/h 71 % 0 mm
19:55 24 °C 18.4 °C 1013.4 hPa SE 9.7 km/h 20.9 km/h 71 % 0 mm
20:00 23.9 °C 18.5 °C 1013.4 hPa South 4.8 km/h 20.9 km/h 72 % 0 mm
20:05 23.9 °C 18.5 °C 1013.4 hPa SE 6.4 km/h 20.9 km/h 72 % 0 mm
20:10 23.9 °C 18.5 °C 1013.4 hPa SE 8 km/h 16.1 km/h 72 % 0 mm
20:15 23.8 °C 18.7 °C 1013.4 hPa ESE 9.7 km/h 16.1 km/h 73 % 0 mm
20:20 23.8 °C 18.7 °C 1013.4 hPa South 8 km/h 20.9 km/h 73 % 0 mm
20:25 23.7 °C 18.8 °C 1013.4 hPa SE 16.1 km/h 22.5 km/h 74 % 0 mm
20:30 23.7 °C 18.8 °C 1013.4 hPa SSE 11.3 km/h 22.5 km/h 74 % 0 mm
20:35 23.7 °C 18.8 °C 1013.1 hPa SSE 11.3 km/h 22.5 km/h 74 % 0 mm
20:40 23.6 °C 18.7 °C 1013.1 hPa East 8 km/h 19.3 km/h 74 % 0 mm
20:45 23.4 °C 18.7 °C 1013.1 hPa East 20.9 km/h 22.5 km/h 75 % 0 mm
20:50 23.4 °C 18.7 °C 1012.8 hPa SE 8 km/h 25.7 km/h 75 % 0 mm
20:55 23.3 °C 18.6 °C 1013.1 hPa ESE 12.9 km/h 25.7 km/h 75 % 0 mm
21:00 23.3 °C 18.6 °C 1013.1 hPa SE 22.5 km/h 25.7 km/h 75 % 0 mm
21:05 23.3 °C 18.8 °C 1013.4 hPa SE 3.2 km/h 25.7 km/h 76 % 0 mm
21:10 23.3 °C 18.8 °C 1013.4 hPa ESE 24.1 km/h 25.7 km/h 76 % 0 mm
21:15 23.3 °C 18.8 °C 1013.8 hPa South 14.5 km/h 25.7 km/h 76 % 0 mm
21:20 23.3 °C 18.8 °C 1013.8 hPa East 14.5 km/h 24.1 km/h 76 % 0 mm
21:25 23.2 °C 18.7 °C 1013.8 hPa East 12.9 km/h 24.1 km/h 76 % 0 mm
21:30 23.2 °C 18.7 °C 1014.1 hPa South 4.8 km/h 22.5 km/h 76 % 0 mm
21:35 23.2 °C 18.7 °C 1014.1 hPa ESE 8 km/h 22.5 km/h 76 % 0 mm
21:40 23.2 °C 18.7 °C 1014.1 hPa SSE 6.4 km/h 20.9 km/h 76 % 0 mm
21:45 23.2 °C 18.9 °C 1014.1 hPa ESE 12.9 km/h 20.9 km/h 77 % 0 mm
21:50 23.2 °C 18.9 °C 1013.8 hPa SSE 11.3 km/h 24.1 km/h 77 % 0 mm
21:55 23.1 °C 18.8 °C 1013.8 hPa SE 12.9 km/h 24.1 km/h 77 % 0 mm
22:00 23.1 °C 18.8 °C 1013.8 hPa ESE 12.9 km/h 25.7 km/h 77 % 0 mm
22:06 23.1 °C 19.1 °C 1014.1 hPa South 11.3 km/h 25.7 km/h 78 % 0 mm
22:11 23.1 °C 19.1 °C 1014.1 hPa SE 9.7 km/h 25.7 km/h 78 % 0 mm
22:16 23 °C 19 °C 1014.1 hPa SW 8 km/h 22.5 km/h 78 % 0 mm
22:21 23 °C 19 °C 1014.4 hPa SE 9.7 km/h 17.7 km/h 78 % 0 mm
22:26 23 °C 19 °C 1014.4 hPa SE 11.3 km/h 17.7 km/h 78 % 0 mm
22:31 22.9 °C 19.1 °C 1014.4 hPa SSE 9.7 km/h 19.3 km/h 79 % 0 mm
22:36 22.9 °C 19.1 °C 1014.4 hPa SSE 14.5 km/h 19.3 km/h 79 % 0 mm
22:41 22.9 °C 19.1 °C 1014.4 hPa SSE 9.7 km/h 22.5 km/h 79 % 0 mm
22:46 22.9 °C 19.1 °C 1014.4 hPa South 6.4 km/h 22.5 km/h 79 % 0 mm
22:51 22.9 °C 19.1 °C 1014.8 hPa East 4.8 km/h 22.5 km/h 79 % 0 mm
22:56 22.9 °C 19.1 °C 1014.8 hPa SE 8 km/h 19.3 km/h 79 % 0 mm
23:01 22.9 °C 19.3 °C 1014.8 hPa South 4.8 km/h 17.7 km/h 80 % 0 mm
23:06 22.8 °C 19.2 °C 1014.4 hPa SSE 8 km/h 19.3 km/h 80 % 0 mm
23:11 22.8 °C 19.2 °C 1014.4 hPa East 8 km/h 19.3 km/h 80 % 0 mm
23:16 22.7 °C 19.1 °C 1014.8 hPa SE 11.3 km/h 19.3 km/h 80 % 0 mm
23:21 22.7 °C 19.1 °C 1014.8 hPa SSE 6.4 km/h 17.7 km/h 80 % 0 mm
23:26 22.7 °C 19.1 °C 1014.4 hPa ESE 8 km/h 17.7 km/h 80 % 0 mm
23:31 22.7 °C 19.3 °C 1014.8 hPa SSW 4.8 km/h 17.7 km/h 81 % 0 mm
23:36 22.7 °C 19.3 °C 1014.8 hPa SSE 9.7 km/h 14.5 km/h 81 % 0 mm
23:41 22.7 °C 19.3 °C 1014.8 hPa SSE 9.7 km/h 14.5 km/h 81 % 0 mm
23:46 22.7 °C 19.3 °C 1014.8 hPa East 12.9 km/h 16.1 km/h 81 % 0 mm
23:51 22.7 °C 19.3 °C 1014.8 hPa SE 4.8 km/h 19.3 km/h 81 % 0 mm
23:56 22.7 °C 19.3 °C 1014.4 hPa SSE 6.4 km/h 19.3 km/h 81 % 0 mm
Spring, Texas: Villages of Bridgestone
Compliments of Weather Underground - 2.75 mb

Script developed by  Jim McMurry - jmcmurry@mwt.net Adapted for the template by  Wim van der Kuil - Leuven-Template.eu

You find our weather info also at:

UK Metoffice

WeatherCloud

Weather Underground

Mid-South Weather Network

AWEKAS

Citizen Weather Observer Program (CWOP)

HAMweather, WeatherForYou, PWS Weather

Equipment we use:

Weather-station
Davis Vantage Vue

Weather-program
Meteohub

Weather-server
Debian 7.9 x86 (Guest)

Provider
DreamHost

Davis Vantage Vue

Meteohub

Debian 7.9 x86 (Guest)

DreamHost